Latest Weather Observations for Mangrove Mountain

IDN60801

Issued at 10:05 pm EST Saturday 19 April 2014 (issued every 30 minutes, with the page automatically refreshed every 10 minutes)

About weather observations | Map of weather stations | Latest weather observations for NSW | Other Formats
Station Details ID: 061375 Name: MANGROVE MOUNTAIN AWS Lat: -33.29 Lon: 151.21 Height: 305.0 m
Data from the previous 72 hours. | See also: Recent months at Mangrove Mountain
Date/Time
EST
Temp
°C
App
Temp
°C
Dew
Point
Rel
Hum
%
Delta-T
°C
Wind Press
QNH
hPa
Press
MSL
hPa
Rain
since 9 am
mm
Dir
 
Spd
km/h
Gust
km/h
Spd
kts
Gust
kts
19/10:00pm 11.9 12.0 10.1 89 0.9 SE 0 0 0 0 - - 0.0
19/09:30pm 12.0 12.0 9.7 86 1.2 SE 0 0 0 0 - - 0.0
19/09:00pm 12.5 12.6 10.2 86 1.2 CALM 0 0 0 0 - - 0.0
19/08:30pm 12.6 12.6 9.8 83 1.5 CALM 0 0 0 0 - - 0.0
19/08:00pm 13.7 13.5 10.3 80 1.8 SE 2 4 1 2 - - 0.0
19/07:30pm 13.9 13.3 10.3 79 1.9 SSE 4 6 2 3 - - 0.0
19/07:00pm 13.6 12.4 9.6 77 2.1 SSE 6 9 3 5 - - 0.0
19/06:30pm 13.8 12.7 9.8 77 2.1 SSE 6 9 3 5 - - 0.0
19/06:00pm 14.4 13.3 10.0 75 2.3 SE 6 9 3 5 - - 0.0
19/05:30pm 15.0 13.3 10.0 72 2.6 SE 9 17 5 9 - - 0.0
19/05:00pm 15.9 13.5 10.2 69 3.0 SE 13 20 7 11 - - 0.0
19/04:30pm 16.8 14.9 10.6 67 3.4 SSE 11 19 6 10 - - 0.0
19/04:00pm 17.4 14.8 10.8 65 3.6 SE 15 20 8 11 - - 0.0
19/03:30pm 18.5 17.0 11.8 65 3.7 SE 11 19 6 10 - - 0.0
19/03:00pm 18.4 16.3 11.2 63 4.0 SE 13 20 7 11 - - 0.0
19/02:30pm 19.1 17.4 12.4 65 3.8 SE 13 19 7 10 - - 0.0
19/02:00pm 19.6 17.7 11.9 61 4.3 SE 13 20 7 11 - - 0.0
19/01:30pm 21.7 20.4 9.3 45 6.7 N 6 11 3 6 - - 0.0
19/01:00pm 21.4 20.6 11.1 52 5.8 NNW 6 13 3 7 - - 0.0
19/12:30pm 19.4 18.3 10.1 55 5.1 NW 6 11 3 6 - - 0.0
19/12:00pm 19.9 18.0 10.6 55 5.1 NW 11 19 6 10 - - 0.0
19/11:30am 20.2 19.0 10.3 53 5.4 NW 7 13 4 7 - - 0.0
19/11:00am 19.6 18.8 11.1 58 4.7 WNW 6 11 3 6 - - 0.0
19/10:30am 19.9 19.3 11.7 59 4.6 NNW 6 11 3 6 - - 0.0
19/10:00am 18.1 17.9 11.9 67 3.5 SSE 4 7 2 4 - - 0.0
19/09:30am 18.1 17.7 12.3 69 3.3 SE 6 11 3 6 - - 0.0
19/09:00am 17.2 16.7 12.1 72 2.8 S 6 9 3 5 - - 0.0
19/08:30am 16.6 16.1 12.2 75 2.5 SSW 6 13 3 7 - - 0.0
19/08:00am 15.6 15.7 11.4 76 2.3 WSW 2 6 1 3 - - 0.0
19/07:30am 14.2 14.5 10.8 80 1.8 CALM 0 0 0 0 - - 0.0
19/07:00am 10.9 10.5 9.7 92 0.6 WNW 2 4 1 2 - - 0.0
19/06:30am 9.8 8.8 8.7 93 0.5 WNW 4 6 2 3 - - 0.0
19/06:00am 9.8 9.5 8.7 93 0.5 W 0 0 0 0 - - 0.0
19/05:30am 10.1 9.4 8.7 91 0.7 W 2 4 1 2 - - 0.0
19/05:00am 10.7 9.8 9.3 91 0.7 W 4 4 2 2 - - 0.0
19/04:30am 11.2 10.8 9.6 90 0.8 W 2 4 1 2 - - 0.0
19/04:00am 10.6 10.0 8.9 89 0.9 W 2 4 1 2 - - 0.0
19/03:30am 10.9 9.9 9.0 88 1.0 W 4 7 2 4 - - 0.0
19/03:00am 10.9 10.0 9.2 89 0.9 W 4 6 2 3 - - 0.0
19/02:30am 11.1 10.0 8.5 84 1.3 WNW 4 4 2 2 - - 0.0
19/02:00am 11.3 11.1 8.9 85 1.2 CALM 0 0 0 0 - - 0.0
19/01:30am 11.5 10.8 8.5 82 1.5 NW 2 2 1 1 - - 0.0
19/01:00am 12.4 11.8 8.9 79 1.8 NW 2 4 1 2 - - 0.0
19/12:30am 13.1 12.5 8.8 75 2.2 WNW 2 4 1 2 - - 0.0
19/12:00am 14.4 13.8 8.8 69 2.9 WNW 2 6 1 3 - - 0.0
 
Date/Time
EST
Temp
°C
App
Temp
°C
Dew
Point
Rel
Hum
%
Delta-T
°C
Wind Press
QNH
hPa
Press
MSL
hPa
Rain
since 9 am
mm
Dir
 
Spd
km/h
Gust
km/h
Spd
kts
Gust
kts
18/11:30pm 15.1 14.1 9.0 67 3.2 NW 4 7 2 4 - - 0.0
18/11:00pm 14.5 13.5 8.7 68 3.0 W 4 6 2 3 - - 0.0
18/10:30pm 15.6 14.7 9.1 65 3.4 W 4 7 2 4 - - 0.0
18/10:00pm 15.4 15.1 8.6 64 3.5 CALM 0 4 0 2 - - 0.0
18/09:30pm 17.0 15.5 9.2 60 4.1 W 7 9 4 5 - - 0.0
18/09:00pm 17.6 16.2 9.5 59 4.3 W 7 11 4 6 - - 0.0
18/08:30pm 16.9 16.1 9.6 62 3.9 W 4 6 2 3 - - 0.0
18/08:00pm 15.7 14.4 9.1 65 3.4 W 6 9 3 5 - - 0.0
18/07:30pm 15.8 14.5 9.2 65 3.5 W 6 7 3 4 - - 0.0
18/07:00pm 16.4 15.4 8.9 61 3.9 W 4 6 2 3 - - 0.0
18/06:30pm 17.8 16.6 9.4 58 4.5 WSW 6 7 3 4 - - 0.0
18/06:00pm 17.8 16.6 10.2 61 4.1 W 7 15 4 8 - - 0.0
18/05:30pm 17.5 18.3 12.6 73 2.8 CALM 0 0 0 0 - - 0.0
18/05:00pm 20.3 21.0 12.3 60 4.5 CALM 0 2 0 1 - - 0.0
18/04:30pm 21.3 21.4 10.2 49 6.1 CALM 0 0 0 0 - - 0.0
18/04:00pm 22.8 21.7 8.5 40 7.7 WNW 4 6 2 3 - - 0.0
18/03:30pm 23.3 22.3 10.4 44 7.2 WNW 6 11 3 6 - - 0.0
18/03:00pm 23.2 21.8 9.6 42 7.5 WNW 7 15 4 8 - - 0.0
18/02:30pm 22.9 21.4 9.3 42 7.4 W 7 13 4 7 - - 0.0
18/02:00pm 22.6 21.0 8.7 41 7.5 W 7 17 4 9 - - 0.0
18/01:30pm 21.9 19.4 8.1 41 7.3 WSW 11 17 6 9 - - 0.0
18/01:00pm 22.3 20.3 10.1 46 6.7 W 11 22 6 12 - - 0.0
18/12:30pm 21.4 20.2 10.3 49 6.1 NNW 7 15 4 8 - - 0.0
18/12:00pm 21.6 20.5 11.9 54 5.5 NW 9 15 5 8 - - 0.0
18/11:30am 20.6 19.7 12.6 60 4.6 NW 9 15 5 8 - - 0.0
18/11:00am 19.8 18.9 12.6 63 4.1 NW 9 15 5 8 - - 0.0
18/10:30am 18.5 18.0 12.5 68 3.4 NW 7 11 4 6 - - 0.0
18/10:00am 17.5 16.9 12.2 71 3.0 NW 7 11 4 6 - - 0.0
18/09:30am 16.6 15.6 12.4 76 2.3 WNW 9 13 5 7 - - 0.0
18/09:00am 15.5 14.2 12.6 83 1.6 NW 11 15 6 8 - - -
18/08:30am 14.3 13.3 12.2 87 1.2 NW 9 13 5 7 - - -
18/08:00am 13.1 12.6 12.5 96 0.3 WNW 7 11 4 6 - - -
18/07:30am 12.0 11.9 12.0 100 0.0 WNW 4 7 2 4 - - -
18/07:00am 10.9 10.1 10.9 100 0.0 NW 6 9 3 5 - - -
18/06:30am 10.6 9.7 10.6 100 0.0 NW 6 7 3 4 - - -
18/06:00am 10.1 9.0 10.1 100 0.0 NW 6 9 3 5 - - -
18/05:30am 10.3 9.3 10.3 100 0.0 NW 6 7 3 4 - - -
18/05:00am 10.3 9.3 10.3 100 0.0 NW 6 7 3 4 - - -
18/04:30am 9.8 8.7 9.8 100 0.0 NW 6 7 3 4 - - -
18/04:00am 9.9 9.2 9.9 100 0.0 NW 4 6 2 3 - - -
18/03:30am 10.4 9.4 10.4 100 0.0 WNW 6 6 3 3 - - -
18/03:00am 10.8 10.3 10.8 100 0.0 WNW 4 7 2 4 - - 0.0
18/02:30am 10.9 10.1 10.9 100 0.0 NW 6 7 3 4 - - -
18/02:00am 10.9 11.1 10.6 98 0.2 CALM 0 0 0 0 - - -
18/01:30am 10.6 10.7 10.1 97 0.3 CALM 0 0 0 0 - - -
18/01:00am 10.9 11.0 10.3 96 0.3 CALM 0 0 0 0 - - -
18/12:30am 11.4 11.7 10.8 96 0.3 CALM 0 0 0 0 - - -
18/12:00am 12.0 12.4 11.4 96 0.3 CALM 0 0 0 0 - - -
 
Date/Time
EST
Temp
°C
App
Temp
°C
Dew
Point
Rel
Hum
%
Delta-T
°C
Wind Press
QNH
hPa
Press
MSL
hPa
Rain
since 9 am
mm
Dir
 
Spd
km/h
Gust
km/h
Spd
kts
Gust
kts
17/11:30pm 12.3 12.7 11.4 94 0.5 CALM 0 0 0 0 - - -
17/11:00pm 13.2 14.0 12.6 96 0.3 CALM 0 0 0 0 - - -
17/10:30pm 12.4 13.0 11.8 96 0.3 CALM 0 0 0 0 - - -
17/10:00pm 12.4 12.9 11.5 94 0.5 CALM 0 0 0 0 - - -
17/09:30pm 13.0 13.7 12.1 94 0.5 CALM 0 0 0 0 - - -
17/09:00pm 13.5 14.3 12.4 93 0.6 CALM 0 0 0 0 - - 0.0
17/08:30pm 13.6 14.2 12.0 90 0.9 CALM 0 0 0 0 - - -
17/08:00pm 14.8 14.9 12.7 87 1.2 SSE 4 6 2 3 - - -
17/07:30pm 15.3 15.0 12.8 85 1.4 SSE 6 9 3 5 - - -
17/07:00pm 15.5 15.0 12.8 84 1.5 SSE 7 11 4 6 - - -
17/06:30pm 15.6 15.3 12.7 83 1.6 SE 6 9 3 5 - - -
17/06:00pm 15.4 15.3 12.0 80 1.9 SE 4 6 2 3 - - -
17/05:30pm 16.7 16.2 12.0 74 2.6 SE 6 7 3 4 - - -
17/05:00pm 17.9 17.5 13.0 73 2.8 SE 7 13 4 7 - - -
17/04:30pm 19.0 18.7 13.2 69 3.3 SE 7 13 4 7 - - -
17/04:00pm 19.6 18.9 13.1 66 3.7 SE 9 17 5 9 - - -
17/03:30pm 19.7 19.0 13.2 66 3.7 SSE 9 17 5 9 - - -
17/03:00pm 19.8 18.7 13.0 65 3.9 SSE 11 20 6 11 - - -
17/02:30pm 20.3 19.4 11.2 56 5.1 S 7 13 4 7 - - -
17/02:00pm 21.1 19.4 11.2 53 5.5 S 11 20 6 11 - - -
17/01:30pm 21.2 19.3 10.4 50 6.0 SW 11 19 6 10 - - -
17/01:00pm 20.9 19.4 10.7 52 5.7 SW 9 17 5 9 - - -
17/12:30pm 19.8 18.5 10.0 53 5.3 S 7 19 4 10 - - -
17/12:00pm 20.0 18.2 11.0 56 5.0 S 11 20 6 11 - - -
17/11:30am 19.8 18.9 11.3 58 4.7 SW 7 19 4 10 - - -
17/11:00am 18.7 17.9 11.8 64 3.9 SW 7 17 4 9 - - -
17/10:30am 18.8 17.7 11.9 64 3.9 SW 9 20 5 11 - - -
17/10:00am 17.5 16.6 11.5 68 3.3 SW 7 13 4 7 - - -
17/09:30am 17.1 16.6 12.0 72 2.8 W 6 15 3 8 - - -
17/08:00am 13.8 13.2 11.8 88 1.1 W 6 13 3 7 - - 0.4
17/07:30am 12.2 11.7 11.9 98 0.2 WNW 6 9 3 5 - - 0.4
17/07:00am 10.3 9.2 10.1 99 0.1 NW 6 7 3 4 - - 0.2
17/06:30am 9.5 8.0 9.2 98 0.2 WNW 7 9 4 5 - - 0.2
17/06:00am 9.7 8.2 9.1 96 0.3 WNW 7 9 4 5 - - 0.2
17/05:30am 10.3 9.4 9.4 94 0.5 W 4 7 2 4 - - 0.2
17/05:00am 10.9 10.1 9.8 93 0.6 W 4 9 2 5 - - 0.2
17/04:30am 11.1 10.0 9.9 92 0.6 W 6 7 3 4 - - 0.2
17/04:00am 11.6 10.9 10.2 91 0.7 W 4 7 2 4 - - 0.2
17/03:30am 11.4 10.7 10.1 92 0.7 W 4 7 2 4 - - 0.2
17/03:00am 11.6 10.9 10.2 91 0.7 W 4 7 2 4 - - 0.2
17/02:30am 11.8 11.3 10.7 93 0.6 SW 4 7 2 4 - - 0.2
17/02:00am 11.6 10.8 11.1 97 0.3 WSW 6 9 3 5 - - 0.2
17/01:30am 11.1 11.4 10.8 98 0.2 CALM 0 4 0 2 - - 0.2
17/01:00am 10.7 10.8 10.1 96 0.3 CALM 0 0 0 0 - - 0.2
17/12:30am 10.9 11.0 10.3 96 0.3 CALM 0 0 0 0 - - 0.2
17/12:00am 11.4 11.7 10.8 96 0.3 CALM 0 0 0 0 - - 0.2
 
Date/Time
EST
Temp
°C
App
Temp
°C
Dew
Point
Rel
Hum
%
Delta-T
°C
Wind Press
QNH
hPa
Press
MSL
hPa
Rain
since 9 am
mm
Dir
 
Spd
km/h
Gust
km/h
Spd
kts
Gust
kts
16/11:30pm 11.9 11.6 11.3 96 0.3 WNW 4 4 2 2 - - 0.2
16/11:00pm 12.3 12.1 11.8 97 0.3 W 4 6 2 3 - - 0.2
16/10:30pm 11.9 11.6 11.4 97 0.3 W 4 6 2 3 - - 0.2

Other Formats:

Comma delimited format used in spreadsheet applications
http://www.bom.gov.au/fwo/IDN60801/IDN60801.95774.axf

JavaScript Object Notation format (JSON) in row-major order
http://www.bom.gov.au/fwo/IDN60801/IDN60801.95774.json